Time;durP1;ratioP1;P1;durP2;ratioP2;P2;SDS_P1;SDS_P2;PMS_P1;PMS_P2;Temp;Humidity;BMP_temperature;BMP_pressure;BME280_temperature;BME280_humidity;BME280_pressure;Samples;Min_cycle;Max_cycle;Signal;HPM_P1;HPM_P2
2021/12/06 00:02:06;;;;;;;;;;;22.80;26.10;;;;;;5121830;27;20291;-48
2021/12/06 00:04:33;;;;;;;;;;;22.90;26.10;;;;;;5122472;27;19923;-50
2021/12/06 00:07:03;;;;;;;;;;;23.00;26.00;;;;;;5127841;27;19923;-47
2021/12/06 00:09:29;;;;;;;;;;;23.00;26.00;;;;;;5122840;27;20015;-48
2021/12/06 00:11:59;;;;;;;;;;;23.00;25.90;;;;;;5122350;27;20642;-47
2021/12/06 00:14:28;;;;;;;;;;;23.00;25.90;;;;;;5127516;27;19948;-47
2021/12/06 00:16:54;;;;;;;;;;;23.10;25.80;;;;;;5122065;27;19924;-46
2021/12/06 00:19:20;;;;;;;;;;;23.20;25.70;;;;;;5124352;27;20062;-53
2021/12/06 00:21:46;;;;;;;;;;;23.10;25.80;;;;;;5124530;27;19928;-46
2021/12/06 00:24:12;;;;;;;;;;;23.10;25.80;;;;;;5121979;27;19927;-45
2021/12/06 00:26:37;;;;;;;;;;;23.10;25.80;;;;;;5127557;27;19969;-61
2021/12/06 00:29:03;;;;;;;;;;;23.20;25.60;;;;;;5122026;27;20011;-52
2021/12/06 00:31:32;;;;;;;;;;;23.00;25.80;;;;;;5121651;27;19923;-51
2021/12/06 00:34:02;;;;;;;;;;;22.90;25.90;;;;;;5126791;27;19930;-50
2021/12/06 00:36:29;;;;;;;;;;;23.00;25.80;;;;;;5121514;27;19923;-53
2021/12/06 00:38:55;;;;;;;;;;;22.90;25.90;;;;;;5101053;27;19968;-52
2021/12/06 00:41:20;;;;;;;;;;;22.90;25.80;;;;;;5127304;27;19927;-48
2021/12/06 00:43:46;;;;;;;;;;;23.00;25.80;;;;;;5103336;27;20221;-48
2021/12/06 00:46:12;;;;;;;;;;;23.10;25.60;;;;;;5127307;27;20398;-47
2021/12/06 00:48:38;;;;;;;;;;;23.10;25.60;;;;;;5121462;27;19927;-47
2021/12/06 00:51:04;;;;;;;;;;;23.10;25.60;;;;;;5120950;27;19935;-59
2021/12/06 00:53:30;;;;;;;;;;;23.00;25.50;;;;;;5106933;27;19923;-54
2021/12/06 00:55:55;;;;;;;;;;;22.80;25.80;;;;;;5120690;27;19931;-55
2021/12/06 00:58:21;;;;;;;;;;;22.80;25.80;;;;;;5121521;27;20196;-52
2021/12/06 01:00:48;;;;;;;;;;;22.90;25.70;;;;;;5107571;27;20026;-53
2021/12/06 01:03:18;;;;;;;;;;;22.80;25.80;;;;;;5121339;27;19928;-53
2021/12/06 01:05:44;;;;;;;;;;;22.80;25.80;;;;;;5125999;27;20429;-56
2021/12/06 01:08:10;;;;;;;;;;;22.80;25.70;;;;;;5122316;27;19927;-53
2021/12/06 01:10:36;;;;;;;;;;;22.80;25.70;;;;;;5120785;27;19928;-55
2021/12/06 01:13:02;;;;;;;;;;;22.80;25.80;;;;;;5126437;27;19923;-51
2021/12/06 01:15:28;;;;;;;;;;;22.90;25.70;;;;;;5120551;27;20021;-52
2021/12/06 01:17:54;;;;;;;;;;;22.80;25.70;;;;;;5121391;27;19934;-49
2021/12/06 01:20:23;;;;;;;;;;;22.90;25.60;;;;;;5126237;27;19985;-49
2021/12/06 01:22:56;;;;;;;;;;;22.90;25.60;;;;;;5121272;27;20425;-47
2021/12/06 01:30:56;;;;;;;;;;;23.10;25.40;;;;;;5120538;27;19927;-46
2021/12/06 01:41:25;;;;;;;;;;;23.00;25.50;;;;;;5120970;28;19972;-49
2021/12/06 01:44:10;;;;;;;;;;;23.00;25.40;;;;;;5125871;28;20050;-53
2021/12/06 01:46:37;;;;;;;;;;;22.90;25.50;;;;;;5120554;28;19927;-54
2021/12/06 01:49:04;;;;;;;;;;;22.80;25.60;;;;;;5120736;28;19927;-49
2021/12/06 01:51:29;;;;;;;;;;;22.80;25.60;;;;;;5125401;28;19930;-50
2021/12/06 01:53:55;;;;;;;;;;;22.80;25.60;;;;;;5120903;28;19931;-50
2021/12/06 01:56:21;;;;;;;;;;;22.80;25.60;;;;;;5120825;28;20006;-49
2021/12/06 01:58:47;;;;;;;;;;;22.80;25.60;;;;;;5126180;28;20317;-51
2021/12/06 02:01:12;;;;;;;;;;;22.90;25.60;;;;;;5120695;28;19923;-49
2021/12/06 02:03:38;;;;;;;;;;;23.00;25.50;;;;;;5125956;28;20018;-48
2021/12/06 02:06:04;;;;;;;;;;;22.90;25.60;;;;;;5120511;28;19930;-45
2021/12/06 02:08:30;;;;;;;;;;;23.00;25.40;;;;;;5120473;28;20015;-47
2021/12/06 02:11:01;;;;;;;;;;;23.00;25.40;;;;;;5125421;28;19950;-45
2021/12/06 02:13:35;;;;;;;;;;;23.00;25.40;;;;;;5120715;28;19957;-48
2021/12/06 02:16:02;;;;;;;;;;;23.10;25.40;;;;;;5103259;28;19924;-54
2021/12/06 02:18:45;;;;;;;;;;;23.00;25.50;;;;;;5108083;28;20291;-49
2021/12/06 02:21:19;;;;;;;;;;;23.00;25.60;;;;;;5120315;28;19928;-51
2021/12/06 02:23:45;;;;;;;;;;;23.00;25.50;;;;;;5120130;28;19935;-48
2021/12/06 02:26:11;;;;;;;;;;;23.00;25.50;;;;;;5125732;28;19982;-47
2021/12/06 02:28:37;;;;;;;;;;;23.00;25.50;;;;;;5119872;28;19923;-47
2021/12/06 02:31:03;;;;;;;;;;;23.00;25.40;;;;;;5121445;28;20375;-56
2021/12/06 02:33:29;;;;;;;;;;;23.00;25.40;;;;;;5125401;28;19978;-44
2021/12/06 02:35:55;;;;;;;;;;;23.10;25.30;;;;;;5120505;28;19924;-47
2021/12/06 02:38:20;;;;;;;;;;;23.10;25.30;;;;;;5107417;28;20027;-47
2021/12/06 02:40:46;;;;;;;;;;;23.20;25.20;;;;;;5120037;28;19928;-53
2021/12/06 02:43:12;;;;;;;;;;;22.90;25.40;;;;;;5121016;27;19924;-51
2021/12/06 02:45:38;;;;;;;;;;;22.90;25.40;;;;;;5110889;27;19969;-51
2021/12/06 02:48:04;;;;;;;;;;;22.90;25.30;;;;;;5123502;27;19923;-51
2021/12/06 02:50:32;;;;;;;;;;;23.00;25.30;;;;;;5124205;27;20860;-50
2021/12/06 02:52:58;;;;;;;;;;;22.90;25.30;;;;;;5129383;27;19927;-50
2021/12/06 02:55:36;;;;;;;;;;;23.00;25.30;;;;;;5124041;27;19976;-50
2021/12/06 02:58:14;;;;;;;;;;;23.00;25.30;;;;;;5127370;27;19931;-53
2021/12/06 03:00:43;;;;;;;;;;;23.00;25.30;;;;;;5110585;27;19926;-48
2021/12/06 03:03:09;;;;;;;;;;;23.00;25.30;;;;;;5123473;27;19934;-47
2021/12/06 03:05:34;;;;;;;;;;;23.10;25.20;;;;;;5128459;27;20134;-47
2021/12/06 03:08:02;;;;;;;;;;;23.10;25.20;;;;;;5123886;27;19927;-47
2021/12/06 03:10:28;;;;;;;;;;;23.10;25.20;;;;;;5123478;27;20301;-51
2021/12/06 03:12:56;;;;;;;;;;;23.00;25.30;;;;;;5128377;27;21294;-47
2021/12/06 03:15:21;;;;;;;;;;;23.00;25.30;;;;;;5123445;27;19931;-57
2021/12/06 03:17:47;;;;;;;;;;;23.10;25.20;;;;;;5123188;27;19980;-54
2021/12/06 03:20:14;;;;;;;;;;;22.80;25.50;;;;;;5128508;27;20300;-52
2021/12/06 03:22:41;;;;;;;;;;;22.70;25.60;;;;;;5123044;27;19930;-51
2021/12/06 03:25:10;;;;;;;;;;;22.70;25.60;;;;;;5108309;27;19939;-57
2021/12/06 03:27:36;;;;;;;;;;;22.70;25.60;;;;;;5126461;27;19988;-51
2021/12/06 03:30:03;;;;;;;;;;;22.70;25.70;;;;;;5123029;27;19923;-52
2021/12/06 03:32:28;;;;;;;;;;;22.70;25.60;;;;;;5128608;27;19977;-51
2021/12/06 03:34:54;;;;;;;;;;;22.80;25.60;;;;;;5122816;27;19923;-50
2021/12/06 03:37:20;;;;;;;;;;;22.70;25.60;;;;;;5122686;27;20253;-52
2021/12/06 03:39:47;;;;;;;;;;;22.80;25.60;;;;;;5128282;27;20162;-50
2021/12/06 03:42:13;;;;;;;;;;;22.80;25.60;;;;;;5122292;27;19927;-52
2021/12/06 03:44:39;;;;;;;;;;;22.70;25.70;;;;;;5123023;27;19927;-50
2021/12/06 03:47:09;;;;;;;;;;;22.70;25.70;;;;;;5128539;27;20366;-49
2021/12/06 03:49:35;;;;;;;;;;;22.70;25.70;;;;;;5122668;27;19976;-51
2021/12/06 03:52:02;;;;;;;;;;;22.70;25.80;;;;;;5128262;27;19930;-48
2021/12/06 03:54:28;;;;;;;;;;;22.70;25.70;;;;;;5121569;27;19923;-47
2021/12/06 03:56:54;;;;;;;;;;;22.80;25.60;;;;;;5122024;27;19982;-50
2021/12/06 03:59:20;;;;;;;;;;;22.80;25.70;;;;;;5127879;27;20000;-48
2021/12/06 04:01:47;;;;;;;;;;;22.80;25.70;;;;;;5122022;27;19927;-51
2021/12/06 04:04:13;;;;;;;;;;;22.80;25.60;;;;;;5122631;27;19923;-51
2021/12/06 04:06:39;;;;;;;;;;;22.80;25.70;;;;;;5127749;27;20359;-48
2021/12/06 04:09:05;;;;;;;;;;;22.80;25.70;;;;;;5122413;27;19966;-48
2021/12/06 04:11:31;;;;;;;;;;;22.80;25.80;;;;;;5127406;27;19930;-52
2021/12/06 04:13:57;;;;;;;;;;;22.80;25.80;;;;;;5122751;27;19979;-49
2021/12/06 04:16:23;;;;;;;;;;;22.80;25.80;;;;;;5103729;27;19927;-49
2021/12/06 04:18:49;;;;;;;;;;;22.80;25.80;;;;;;5127258;27;19923;-49
2021/12/06 04:21:15;;;;;;;;;;;22.80;25.80;;;;;;5122022;27;20022;-48
2021/12/06 04:23:41;;;;;;;;;;;22.80;25.80;;;;;;5122254;27;19928;-49
2021/12/06 04:26:07;;;;;;;;;;;22.90;25.70;;;;;;5127584;27;19927;-49
2021/12/06 04:28:35;;;;;;;;;;;22.90;25.70;;;;;;5122330;27;19928;-49
2021/12/06 04:31:01;;;;;;;;;;;22.80;25.70;;;;;;5123653;27;20297;-53
2021/12/06 04:33:27;;;;;;;;;;;22.90;25.70;;;;;;5125751;27;19923;-48
2021/12/06 04:35:53;;;;;;;;;;;22.90;25.80;;;;;;5121644;27;20302;-50
2021/12/06 04:38:18;;;;;;;;;;;22.90;25.80;;;;;;5126590;27;20116;-47
2021/12/06 04:40:44;;;;;;;;;;;22.90;25.70;;;;;;5121995;27;20365;-47
2021/12/06 04:43:10;;;;;;;;;;;22.90;25.80;;;;;;5121890;27;19923;-46
2021/12/06 04:45:36;;;;;;;;;;;22.90;25.80;;;;;;5127204;27;19973;-47
2021/12/06 04:48:02;;;;;;;;;;;23.00;25.70;;;;;;5121651;27;19927;-47
2021/12/06 04:50:30;;;;;;;;;;;23.00;25.70;;;;;;5121137;27;19928;-49
2021/12/06 04:52:57;;;;;;;;;;;23.10;25.60;;;;;;5126688;27;20017;-54
2021/12/06 04:55:25;;;;;;;;;;;22.90;25.70;;;;;;5102871;27;19924;-55
2021/12/06 04:57:51;;;;;;;;;;;22.90;25.80;;;;;;5126437;27;19930;-52
2021/12/06 05:00:25;;;;;;;;;;;22.80;25.90;;;;;;5121581;27;20282;-50
2021/12/06 05:02:50;;;;;;;;;;;22.90;25.80;;;;;;5121430;27;19927;-50
2021/12/06 05:05:24;;;;;;;;;;;22.90;25.80;;;;;;5127026;27;20059;-48
2021/12/06 05:07:55;;;;;;;;;;;22.90;25.80;;;;;;5121108;27;19923;-49
2021/12/06 05:10:21;;;;;;;;;;;22.90;25.80;;;;;;5121190;27;19980;-47
2021/12/06 05:12:47;;;;;;;;;;;22.90;25.70;;;;;;5108185;27;19927;-48
2021/12/06 05:15:13;;;;;;;;;;;23.00;25.70;;;;;;5120789;27;19927;-46
2021/12/06 05:17:39;;;;;;;;;;;23.00;25.70;;;;;;5121549;27;19931;-48
2021/12/06 05:20:05;;;;;;;;;;;23.00;25.60;;;;;;5126766;27;19974;-45
2021/12/06 05:22:31;;;;;;;;;;;23.20;25.50;;;;;;5121217;27;19931;-52
2021/12/06 05:24:56;;;;;;;;;;;22.90;25.80;;;;;;5107124;27;19931;-53
2021/12/06 05:27:28;;;;;;;;;;;22.90;25.80;;;;;;5120969;27;19948;-51
2021/12/06 05:29:58;;;;;;;;;;;22.90;25.80;;;;;;5120780;27;19924;-50
2021/12/06 05:32:26;;;;;;;;;;;22.90;25.80;;;;;;5126282;27;19927;-52
2021/12/06 05:34:57;;;;;;;;;;;22.80;25.90;;;;;;5120573;27;19986;-50
2021/12/06 05:37:23;;;;;;;;;;;22.80;25.90;;;;;;5121300;27;20401;-49
2021/12/06 05:39:49;;;;;;;;;;;22.90;25.80;;;;;;5126360;27;19927;-48
2021/12/06 05:42:15;;;;;;;;;;;22.90;25.80;;;;;;5121148;28;20354;-51
2021/12/06 05:44:41;;;;;;;;;;;22.90;25.80;;;;;;5120775;28;19982;-48
2021/12/06 05:47:06;;;;;;;;;;;22.90;25.70;;;;;;5126036;28;20317;-49
2021/12/06 05:49:32;;;;;;;;;;;23.00;25.70;;;;;;5120438;28;19937;-47
2021/12/06 05:51:58;;;;;;;;;;;22.90;25.70;;;;;;5125419;28;19927;-48
2021/12/06 05:54:24;;;;;;;;;;;22.90;25.70;;;;;;5120909;28;20390;-49
2021/12/06 05:56:50;;;;;;;;;;;22.90;25.70;;;;;;5120762;28;20294;-47
2021/12/06 05:59:16;;;;;;;;;;;22.90;25.70;;;;;;5125993;28;20370;-49
2021/12/06 06:01:42;;;;;;;;;;;22.90;25.70;;;;;;5120927;28;19932;-46
2021/12/06 06:04:08;;;;;;;;;;;23.00;25.60;;;;;;5120407;28;19924;-47
2021/12/06 06:06:34;;;;;;;;;;;22.90;25.70;;;;;;5126026;28;20425;-47
2021/12/06 06:09:00;;;;;;;;;;;23.00;25.60;;;;;;5120536;28;19928;-47
2021/12/06 06:11:25;;;;;;;;;;;23.00;25.60;;;;;;5107107;28;19942;-45
2021/12/06 06:13:52;;;;;;;;;;;23.00;25.50;;;;;;5120738;28;19934;-45
2021/12/06 06:16:20;;;;;;;;;;;23.00;25.60;;;;;;5120507;28;20051;-47
2021/12/06 06:18:46;;;;;;;;;;;23.00;25.50;;;;;;5128369;27;19948;-48
2021/12/06 06:21:12;;;;;;;;;;;23.00;25.60;;;;;;5124627;27;19923;-47
2021/12/06 06:23:38;;;;;;;;;;;23.10;25.60;;;;;;5124376;27;20347;-50
2021/12/06 06:26:04;;;;;;;;;;;23.00;25.60;;;;;;5129786;27;19930;-48
2021/12/06 06:28:29;;;;;;;;;;;23.10;25.50;;;;;;5124070;27;19927;-45
2021/12/06 06:30:55;;;;;;;;;;;23.10;25.40;;;;;;5128161;27;20381;-57
2021/12/06 06:33:21;;;;;;;;;;;23.20;25.40;;;;;;5126311;27;20348;-56
2021/12/06 06:35:47;;;;;;;;;;;22.70;26.00;;;;;;5124422;27;19951;-55
2021/12/06 06:38:13;;;;;;;;;;;22.60;26.20;;;;;;5130024;27;19924;-53
2021/12/06 06:40:38;;;;;;;;;;;22.60;26.10;;;;;;5124127;27;19930;-54
2021/12/06 06:43:04;;;;;;;;;;;22.60;26.10;;;;;;5124024;27;19923;-55
2021/12/06 06:45:30;;;;;;;;;;;22.60;26.20;;;;;;5129349;27;19931;-52
2021/12/06 06:47:56;;;;;;;;;;;22.60;26.30;;;;;;5123251;27;19994;-53
2021/12/06 06:50:22;;;;;;;;;;;22.50;26.20;;;;;;5125986;27;20230;-56
2021/12/06 06:52:48;;;;;;;;;;;22.60;26.20;;;;;;5128151;27;19924;-54
2021/12/06 06:55:15;;;;;;;;;;;22.50;26.30;;;;;;5124004;27;19973;-52
2021/12/06 06:57:41;;;;;;;;;;;22.40;26.40;;;;;;5129352;27;19927;-51
2021/12/06 07:00:08;;;;;;;;;;;22.60;26.30;;;;;;5123612;27;20021;-52
2021/12/06 07:02:34;;;;;;;;;;;22.50;26.30;;;;;;5123341;27;19934;-54
2021/12/06 07:04:59;;;;;;;;;;;22.50;26.30;;;;;;5128916;27;19923;-49
2021/12/06 07:07:25;;;;;;;;;;;22.50;26.30;;;;;;5123361;27;20272;-51
2021/12/06 07:09:51;;;;;;;;;;;22.50;26.30;;;;;;5123695;27;20279;-51
2021/12/06 07:12:18;;;;;;;;;;;22.50;26.30;;;;;;5093471;27;19991;-51
2021/12/06 07:14:44;;;;;;;;;;;22.50;26.30;;;;;;5123675;27;20199;-51
2021/12/06 07:17:10;;;;;;;;;;;22.50;26.40;;;;;;5128712;27;20389;-49
2021/12/06 07:19:36;;;;;;;;;;;22.50;26.40;;;;;;5123163;27;19966;-52
2021/12/06 07:22:02;;;;;;;;;;;22.50;26.40;;;;;;5123323;27;19930;-51
2021/12/06 07:24:28;;;;;;;;;;;22.50;26.30;;;;;;5128049;27;19927;-49
2021/12/06 07:26:54;;;;;;;;;;;22.50;26.40;;;;;;5123698;27;20432;-50
2021/12/06 07:29:19;;;;;;;;;;;22.50;26.40;;;;;;5123202;27;20299;-50
2021/12/06 07:31:45;;;;;;;;;;;22.60;26.30;;;;;;5110376;27;19924;-49
2021/12/06 07:34:11;;;;;;;;;;;22.50;26.40;;;;;;5123383;27;19979;-47
2021/12/06 07:36:37;;;;;;;;;;;22.50;26.40;;;;;;5128445;27;20320;-50
2021/12/06 07:39:02;;;;;;;;;;;22.70;26.20;;;;;;5102419;27;19923;-51
2021/12/06 07:41:29;;;;;;;;;;;22.60;26.20;;;;;;5122736;27;19939;-51
2021/12/06 07:43:56;;;;;;;;;;;22.70;26.20;;;;;;5127901;27;19927;-48
2021/12/06 07:46:22;;;;;;;;;;;22.60;26.20;;;;;;5123328;27;20074;-49
2021/12/06 07:48:52;;;;;;;;;;;22.70;26.20;;;;;;5122984;27;20046;-51
2021/12/06 07:51:24;;;;;;;;;;;22.70;26.20;;;;;;5128251;27;19930;-52
2021/12/06 07:53:49;;;;;;;;;;;22.70;26.10;;;;;;5122780;27;19924;-47
2021/12/06 07:56:15;;;;;;;;;;;22.80;26.10;;;;;;5122253;27;19946;-53
2021/12/06 07:58:41;;;;;;;;;;;22.80;26.10;;;;;;5127877;27;20328;-50
2021/12/06 08:01:07;;;;;;;;;;;22.80;26.10;;;;;;5121991;27;20306;-51
2021/12/06 08:03:33;;;;;;;;;;;22.70;26.10;;;;;;5127926;27;19923;-49
2021/12/06 08:05:59;;;;;;;;;;;22.70;26.20;;;;;;5122753;27;19940;-51
2021/12/06 08:08:26;;;;;;;;;;;22.80;26.00;;;;;;5122529;27;19945;-49
2021/12/06 08:10:52;;;;;;;;;;;22.70;26.10;;;;;;5128022;27;20438;-47
2021/12/06 08:13:19;;;;;;;;;;;22.70;26.10;;;;;;5122169;27;20006;-48
2021/12/06 08:15:45;;;;;;;;;;;22.80;26.10;;;;;;5122207;27;20187;-48
2021/12/06 08:18:11;;;;;;;;;;;22.80;26.10;;;;;;5127718;27;19928;-49
2021/12/06 08:20:37;;;;;;;;;;;22.80;26.00;;;;;;5121380;27;20335;-49
2021/12/06 08:23:03;;;;;;;;;;;22.80;26.10;;;;;;5127687;27;19935;-52
2021/12/06 08:25:29;;;;;;;;;;;22.80;26.00;;;;;;5121913;27;19927;-50
2021/12/06 08:27:54;;;;;;;;;;;22.80;26.00;;;;;;5122314;27;19931;-49
2021/12/06 08:30:22;;;;;;;;;;;22.70;26.10;;;;;;5127318;27;20015;-50
2021/12/06 08:32:49;;;;;;;;;;;22.80;25.90;;;;;;5121721;27;19953;-49
2021/12/06 08:35:15;;;;;;;;;;;22.80;26.00;;;;;;5102049;27;19934;-51
2021/12/06 08:37:41;;;;;;;;;;;22.80;26.00;;;;;;5126957;27;19934;-48
2021/12/06 08:40:07;;;;;;;;;;;22.80;26.00;;;;;;5121523;27;20385;-51
2021/12/06 08:42:33;;;;;;;;;;;22.80;26.00;;;;;;5125371;27;20302;-54
2021/12/06 08:44:58;;;;;;;;;;;22.90;25.90;;;;;;5123952;27;19972;-48
2021/12/06 08:47:25;;;;;;;;;;;22.80;26.00;;;;;;5121896;27;19930;-47
2021/12/06 08:49:51;;;;;;;;;;;22.90;25.90;;;;;;5126794;27;19927;-48
2021/12/06 08:52:19;;;;;;;;;;;22.90;25.90;;;;;;5120958;27;19950;-48
2021/12/06 08:54:45;;;;;;;;;;;22.90;25.90;;;;;;5121187;27;20029;-47
2021/12/06 08:57:11;;;;;;;;;;;23.00;25.80;;;;;;5126230;27;19935;-49
2021/12/06 08:59:37;;;;;;;;;;;23.00;25.80;;;;;;5121377;27;19935;-46
2021/12/06 09:02:03;;;;;;;;;;;23.00;25.80;;;;;;5121420;27;19976;-49
2021/12/06 09:04:31;;;;;;;;;;;23.00;25.70;;;;;;5127000;27;19923;-49
2021/12/06 09:06:58;;;;;;;;;;;23.00;25.80;;;;;;5121559;27;20378;-47
2021/12/06 09:09:27;;;;;;;;;;;23.00;25.80;;;;;;5126438;27;19930;-47
2021/12/06 09:11:53;;;;;;;;;;;23.00;25.70;;;;;;5120646;27;19932;-46
2021/12/06 09:14:18;;;;;;;;;;;23.10;25.80;;;;;;5120747;27;19930;-55
2021/12/06 09:16:44;;;;;;;;;;;23.00;25.90;;;;;;5126574;27;20012;-52
2021/12/06 09:19:10;;;;;;;;;;;22.90;26.00;;;;;;5121533;27;19934;-52
2021/12/06 09:21:37;;;;;;;;;;;22.90;26.00;;;;;;5120890;27;20066;-52
2021/12/06 09:24:03;;;;;;;;;;;22.90;26.00;;;;;;5126643;27;19923;-52
2021/12/06 09:26:29;;;;;;;;;;;23.00;25.90;;;;;;5100679;27;19984;-48
2021/12/06 09:28:55;;;;;;;;;;;23.00;25.90;;;;;;5126145;27;19923;-55
2021/12/06 09:31:21;;;;;;;;;;;23.00;25.90;;;;;;5120918;27;20290;-48
2021/12/06 09:33:47;;;;;;;;;;;23.00;25.80;;;;;;5120301;27;20022;-56
2021/12/06 09:36:13;;;;;;;;;;;23.00;25.90;;;;;;5126426;27;20414;-56
2021/12/06 09:38:41;;;;;;;;;;;22.80;26.10;;;;;;5101869;28;19935;-53
2021/12/06 09:41:11;;;;;;;;;;;22.80;26.10;;;;;;5120786;27;19930;-53
2021/12/06 09:43:39;;;;;;;;;;;22.90;26.10;;;;;;5126167;28;20209;-53
2021/12/06 09:46:06;;;;;;;;;;;22.80;26.20;;;;;;5120700;28;19930;-51
2021/12/06 09:48:32;;;;;;;;;;;22.80;26.10;;;;;;5120323;28;19987;-54
2021/12/06 09:50:59;;;;;;;;;;;22.80;26.30;;;;;;5126091;28;19924;-53
2021/12/06 09:53:26;;;;;;;;;;;22.80;26.20;;;;;;5122066;27;19945;-53
2021/12/06 09:55:52;;;;;;;;;;;22.90;26.20;;;;;;5130612;27;19958;-55
2021/12/06 09:58:18;;;;;;;;;;;22.80;26.30;;;;;;5124982;27;19975;-49
2021/12/06 10:00:45;;;;;;;;;;;22.80;26.30;;;;;;5106230;27;19932;-50
2021/12/06 10:03:11;;;;;;;;;;;22.80;26.30;;;;;;5130001;27;19927;-51
2021/12/06 10:05:37;;;;;;;;;;;22.90;26.10;;;;;;5124472;27;20013;-51
2021/12/06 10:08:03;;;;;;;;;;;23.00;26.00;;;;;;5124489;27;19984;-51
2021/12/06 10:10:29;;;;;;;;;;;23.00;25.90;;;;;;5129471;27;19924;-49
2021/12/06 10:12:54;;;;;;;;;;;23.00;26.00;;;;;;5124696;27;19927;-47
2021/12/06 10:15:21;;;;;;;;;;;23.10;25.80;;;;;;5130422;27;20374;-50
2021/12/06 10:17:47;;;;;;;;;;;23.10;25.80;;;;;;5124785;27;19930;-54
2021/12/06 10:20:13;;;;;;;;;;;23.00;25.90;;;;;;5124529;27;19931;-52
2021/12/06 10:22:39;;;;;;;;;;;23.00;25.90;;;;;;5129514;27;19923;-51
2021/12/06 10:25:05;;;;;;;;;;;23.10;25.80;;;;;;5124227;27;19934;-50
2021/12/06 10:27:31;;;;;;;;;;;23.00;25.80;;;;;;5123988;27;19927;-49
2021/12/06 10:30:03;;;;;;;;;;;23.00;25.80;;;;;;5109693;27;19924;-49
2021/12/06 10:32:30;;;;;;;;;;;23.10;25.70;;;;;;5106669;27;19923;-52
2021/12/06 10:35:00;;;;;;;;;;;23.00;25.60;;;;;;5124252;27;19934;-53
2021/12/06 10:37:27;;;;;;;;;;;23.10;25.60;;;;;;5129904;27;20002;-47
2021/12/06 10:39:53;;;;;;;;;;;23.10;25.50;;;;;;5123834;27;19929;-48
2021/12/06 10:42:29;;;;;;;;;;;23.00;25.60;;;;;;5110791;27;20018;-46
2021/12/06 10:44:54;;;;;;;;;;;23.10;25.50;;;;;;5124433;27;19927;-53
2021/12/06 10:47:20;;;;;;;;;;;23.00;25.60;;;;;;5123598;27;19923;-52
2021/12/06 10:49:47;;;;;;;;;;;23.00;25.70;;;;;;5129387;27;19966;-51
2021/12/06 10:52:22;;;;;;;;;;;22.90;25.60;;;;;;5123704;27;19923;-52
2021/12/06 10:54:52;;;;;;;;;;;23.00;25.50;;;;;;5123738;27;19930;-50
2021/12/06 10:57:19;;;;;;;;;;;23.00;25.50;;;;;;5129230;27;19944;-49
2021/12/06 10:59:45;;;;;;;;;;;23.00;25.40;;;;;;5123594;27;20394;-50
2021/12/06 11:02:11;;;;;;;;;;;23.10;25.30;;;;;;5123727;27;20179;-50
2021/12/06 11:04:37;;;;;;;;;;;23.10;25.20;;;;;;5128506;27;19923;-59
2021/12/06 11:07:05;;;;;;;;;;;22.90;25.40;;;;;;5104574;27;20645;-56
2021/12/06 11:09:32;;;;;;;;;;;23.00;25.40;;;;;;5129188;27;19923;-51
2021/12/06 11:11:59;;;;;;;;;;;22.90;25.30;;;;;;5123298;27;19923;-50
2021/12/06 11:14:26;;;;;;;;;;;22.90;25.30;;;;;;5123558;27;19946;-50
2021/12/06 11:16:53;;;;;;;;;;;22.90;25.20;;;;;;5128730;27;20434;-50
2021/12/06 11:19:20;;;;;;;;;;;22.90;25.20;;;;;;5123256;27;19935;-50
2021/12/06 11:21:47;;;;;;;;;;;23.00;25.10;;;;;;5123190;27;20014;-48
2021/12/06 11:24:31;;;;;;;;;;;23.10;25.00;;;;;;5128223;27;19976;-49
2021/12/06 11:27:04;;;;;;;;;;;23.10;24.90;;;;;;5123427;27;19935;-56
2021/12/06 11:29:33;;;;;;;;;;;23.00;25.00;;;;;;5104850;27;20340;-52
2021/12/06 11:32:03;;;;;;;;;;;22.80;25.10;;;;;;5128580;27;19933;-52
2021/12/06 11:34:30;;;;;;;;;;;22.90;25.00;;;;;;5123369;27;20018;-53
2021/12/06 11:36:56;;;;;;;;;;;22.90;25.00;;;;;;5123178;27;20390;-52
2021/12/06 11:39:26;;;;;;;;;;;22.90;24.90;;;;;;5128209;27;19928;-52
2021/12/06 11:41:55;;;;;;;;;;;22.90;24.80;;;;;;5122770;27;20119;-50
2021/12/06 11:44:28;;;;;;;;;;;23.00;24.80;;;;;;5128110;27;19931;-49
2021/12/06 11:46:58;;;;;;;;;;;23.00;24.80;;;;;;5125131;27;20263;-48
2021/12/06 11:49:32;;;;;;;;;;;23.10;24.60;;;;;;5122861;27;19923;-47
2021/12/06 11:51:58;;;;;;;;;;;23.10;24.60;;;;;;5128278;27;19927;-60
2021/12/06 11:54:24;;;;;;;;;;;23.00;24.50;;;;;;5122603;27;20417;-53
2021/12/06 11:56:51;;;;;;;;;;;22.90;24.70;;;;;;5122511;27;20022;-53
2021/12/06 11:59:18;;;;;;;;;;;22.90;24.70;;;;;;5127796;27;20010;-51
2021/12/06 12:01:45;;;;;;;;;;;23.00;24.70;;;;;;5121956;27;19923;-47
2021/12/06 12:04:15;;;;;;;;;;;23.00;24.70;;;;;;5122636;27;19932;-50
2021/12/06 12:06:44;;;;;;;;;;;23.10;24.80;;;;;;5127768;27;19971;-57
2021/12/06 12:09:24;;;;;;;;;;;23.00;24.80;;;;;;5122208;27;19930;-53
2021/12/06 12:11:51;;;;;;;;;;;22.90;24.90;;;;;;5122370;27;20229;-53
2021/12/06 12:14:16;;;;;;;;;;;22.90;24.90;;;;;;5127641;27;19939;-49
2021/12/06 12:16:42;;;;;;;;;;;23.00;24.80;;;;;;5120925;27;19980;-51
2021/12/06 12:19:08;;;;;;;;;;;23.00;24.80;;;;;;5127300;27;19927;-51
2021/12/06 12:21:34;;;;;;;;;;;23.00;24.70;;;;;;5122098;27;19923;-51
2021/12/06 12:23:59;;;;;;;;;;;23.10;24.50;;;;;;5122290;27;20465;-46
2021/12/06 12:26:25;;;;;;;;;;;23.20;24.40;;;;;;5127640;27;19931;-54
2021/12/06 12:28:59;;;;;;;;;;;23.00;24.50;;;;;;5102528;27;19967;-52
2021/12/06 12:31:26;;;;;;;;;;;22.90;24.60;;;;;;5121949;27;20528;-52
2021/12/06 12:33:54;;;;;;;;;;;23.00;24.50;;;;;;5127221;27;20014;-52
2021/12/06 12:36:20;;;;;;;;;;;23.00;24.40;;;;;;5121930;27;20219;-51
2021/12/06 12:38:47;;;;;;;;;;;23.00;24.20;;;;;;5104105;27;19930;-58
2021/12/06 12:41:17;;;;;;;;;;;23.10;24.10;;;;;;5126837;27;20413;-49
2021/12/06 12:43:50;;;;;;;;;;;23.00;24.10;;;;;;5121710;27;20063;-56
2021/12/06 12:46:18;;;;;;;;;;;22.80;24.20;;;;;;5127172;27;19928;-55
2021/12/06 12:49:01;;;;;;;;;;;22.80;24.20;;;;;;5121560;27;19945;-54
2021/12/06 12:51:30;;;;;;;;;;;22.90;24.10;;;;;;5121226;27;21486;-52
2021/12/06 12:53:59;;;;;;;;;;;22.80;24.10;;;;;;5108793;27;19946;-54
2021/12/06 12:56:26;;;;;;;;;;;22.80;24.10;;;;;;5120911;27;19931;-53
2021/12/06 12:58:52;;;;;;;;;;;22.80;24.00;;;;;;5121518;27;20462;-51
2021/12/06 13:01:19;;;;;;;;;;;22.90;24.00;;;;;;5108804;27;19923;-53
2021/12/06 13:03:53;;;;;;;;;;;22.90;23.90;;;;;;5121275;27;19924;-53
2021/12/06 13:06:20;;;;;;;;;;;22.90;23.90;;;;;;5121303;27;19923;-51
2021/12/06 13:08:46;;;;;;;;;;;22.90;23.90;;;;;;5126765;27;19924;-53
2021/12/06 13:11:12;;;;;;;;;;;22.90;24.20;;;;;;5120953;27;19930;-48
2021/12/06 13:13:44;;;;;;;;;;;22.90;24.40;;;;;;5121671;27;19923;-57
2021/12/06 13:16:35;;;;;;;;;;;22.90;24.60;;;;;;5126054;27;19927;-51
2021/12/06 13:21:51;;;;;;;;;;;22.90;24.80;;;;;;5120982;27;19927;-49
2021/12/06 13:24:16;;;;;;;;;;;22.90;24.90;;;;;;5126835;27;20394;-48
2021/12/06 13:26:43;;;;;;;;;;;22.90;24.90;;;;;;5120658;27;19935;-49
2021/12/06 13:29:13;;;;;;;;;;;23.00;25.00;;;;;;5120652;27;19941;-50
2021/12/06 13:31:39;;;;;;;;;;;23.10;25.00;;;;;;5126222;27;19923;-48
2021/12/06 13:34:18;;;;;;;;;;;23.10;25.10;;;;;;5120244;27;19924;-51
2021/12/06 13:36:45;;;;;;;;;;;23.00;25.20;;;;;;5125037;27;19923;-55
2021/12/06 13:39:29;;;;;;;;;;;23.00;25.20;;;;;;5123281;27;20280;-51
2021/12/06 13:41:55;;;;;;;;;;;23.00;25.30;;;;;;5120879;28;19930;-48
2021/12/06 13:44:22;;;;;;;;;;;23.10;25.10;;;;;;5126090;27;20390;-53
2021/12/06 13:46:50;;;;;;;;;;;23.10;25.10;;;;;;5120428;28;19932;-55
2021/12/06 13:49:20;;;;;;;;;;;22.90;25.40;;;;;;5120519;28;19959;-52
2021/12/06 13:51:58;;;;;;;;;;;23.00;25.30;;;;;;5125431;28;19966;-52
2021/12/06 13:54:26;;;;;;;;;;;23.00;25.20;;;;;;5120643;28;19936;-51
2021/12/06 13:56:54;;;;;;;;;;;23.00;25.20;;;;;;5120685;28;19923;-52
2021/12/06 13:59:29;;;;;;;;;;;23.00;25.20;;;;;;5126126;28;19930;-52
2021/12/06 14:01:56;;;;;;;;;;;23.00;25.20;;;;;;5120871;28;19924;-50
2021/12/06 14:04:22;;;;;;;;;;;23.00;25.10;;;;;;5120499;28;20000;-50
2021/12/06 14:06:49;;;;;;;;;;;23.10;24.90;;;;;;5125880;28;20367;-53
2021/12/06 14:09:15;;;;;;;;;;;23.10;25.00;;;;;;5120344;28;19968;-53
2021/12/06 14:11:41;;;;;;;;;;;23.10;25.00;;;;;;5120677;28;20433;-55
2021/12/06 14:14:10;;;;;;;;;;;23.00;25.10;;;;;;5125733;28;19967;-52
2021/12/06 14:16:39;;;;;;;;;;;23.00;25.30;;;;;;5120270;28;19943;-51
2021/12/06 14:19:04;;;;;;;;;;;23.10;25.40;;;;;;5107614;28;20384;-54
2021/12/06 14:21:34;;;;;;;;;;;23.10;25.40;;;;;;5120465;28;20017;-51
2021/12/06 14:24:00;;;;;;;;;;;23.10;25.50;;;;;;5120124;28;19923;-54
2021/12/06 14:26:26;;;;;;;;;;;23.00;25.60;;;;;;5125504;28;20384;-53
2021/12/06 14:28:51;;;;;;;;;;;23.00;25.70;;;;;;5101314;28;19931;-51
2021/12/06 14:31:17;;;;;;;;;;;23.00;25.70;;;;;;5120296;28;19950;-51
2021/12/06 14:33:43;;;;;;;;;;;23.00;25.80;;;;;;5125926;28;19924;-54